sensor_id;sensor_type;location;lat;lon;timestamp;pressure;altitude;pressure_sealevel;temperature;humidity
33859;BME280;20156;47.486;12.074;2022-08-01T00:01:32;95603.38;;;17.96;100.00
33859;BME280;20156;47.486;12.074;2022-08-01T00:03:58;95604.34;;;17.90;100.00
33859;BME280;20156;47.486;12.074;2022-08-01T00:06:24;95599.09;;;17.90;100.00
33859;BME280;20156;47.486;12.074;2022-08-01T00:08:49;95597.94;;;18.36;100.00
33859;BME280;20156;47.486;12.074;2022-08-01T00:11:14;95589.50;;;18.34;100.00
33859;BME280;20156;47.486;12.074;2022-08-01T00:13:40;95595.59;;;18.01;100.00
33859;BME280;20156;47.486;12.074;2022-08-01T00:16:05;95593.81;;;17.90;100.00
33859;BME280;20156;47.486;12.074;2022-08-01T00:18:31;95596.88;;;17.82;100.00
33859;BME280;20156;47.486;12.074;2022-08-01T00:20:56;95597.41;;;18.00;100.00
33859;BME280;20156;47.486;12.074;2022-08-01T00:23:22;95601.91;;;18.00;100.00
33859;BME280;20156;47.486;12.074;2022-08-01T00:25:47;95595.16;;;18.26;100.00
33859;BME280;20156;47.486;12.074;2022-08-01T00:28:12;95601.00;;;17.94;100.00
33859;BME280;20156;47.486;12.074;2022-08-01T00:30:38;95595.34;;;18.02;100.00
33859;BME280;20156;47.486;12.074;2022-08-01T00:33:04;95596.94;;;18.03;100.00
33859;BME280;20156;47.486;12.074;2022-08-01T00:35:29;95596.44;;;18.23;100.00
33859;BME280;20156;47.486;12.074;2022-08-01T00:37:55;95598.22;;;18.01;100.00
33859;BME280;20156;47.486;12.074;2022-08-01T00:40:20;95595.34;;;17.86;100.00
33859;BME280;20156;47.486;12.074;2022-08-01T00:42:46;95602.97;;;17.70;100.00
33859;BME280;20156;47.486;12.074;2022-08-01T00:45:11;95593.34;;;17.76;100.00
33859;BME280;20156;47.486;12.074;2022-08-01T00:47:37;95590.97;;;17.63;100.00
33859;BME280;20156;47.486;12.074;2022-08-01T00:50:04;95593.81;;;17.44;100.00
33859;BME280;20156;47.486;12.074;2022-08-01T00:52:29;95587.13;;;17.37;100.00
33859;BME280;20156;47.486;12.074;2022-08-01T00:54:55;95596.59;;;17.38;100.00
33859;BME280;20156;47.486;12.074;2022-08-01T00:57:20;95588.75;;;17.55;100.00
33859;BME280;20156;47.486;12.074;2022-08-01T00:59:46;95590.09;;;17.57;100.00
33859;BME280;20156;47.486;12.074;2022-08-01T01:02:12;95588.47;;;17.39;100.00
33859;BME280;20156;47.486;12.074;2022-08-01T01:04:37;95597.59;;;17.49;100.00
33859;BME280;20156;47.486;12.074;2022-08-01T01:09:42;95585.91;;;17.44;100.00
33859;BME280;20156;47.486;12.074;2022-08-01T01:12:51;95592.19;;;17.27;100.00
33859;BME280;20156;47.486;12.074;2022-08-01T01:18:12;95592.03;;;17.05;100.00
33859;BME280;20156;47.486;12.074;2022-08-01T01:20:41;95592.59;;;17.07;100.00
33859;BME280;20156;47.486;12.074;2022-08-01T01:23:33;95584.00;;;17.68;100.00
33859;BME280;20156;47.486;12.074;2022-08-01T01:29:23;95589.97;;;17.07;100.00
33859;BME280;20156;47.486;12.074;2022-08-01T01:31:59;95586.19;;;17.14;100.00
33859;BME280;20156;47.486;12.074;2022-08-01T01:34:28;95588.81;;;17.14;100.00
33859;BME280;20156;47.486;12.074;2022-08-01T01:36:58;95588.22;;;17.41;100.00
33859;BME280;20156;47.486;12.074;2022-08-01T01:39:25;95585.00;;;17.67;100.00
33859;BME280;20156;47.486;12.074;2022-08-01T01:41:53;95577.06;;;17.79;100.00
33859;BME280;20156;47.486;12.074;2022-08-01T01:44:20;95582.38;;;17.51;100.00
33859;BME280;20156;47.486;12.074;2022-08-01T01:46:46;95583.28;;;17.44;100.00
33859;BME280;20156;47.486;12.074;2022-08-01T01:49:14;95585.47;;;17.48;100.00
33859;BME280;20156;47.486;12.074;2022-08-01T01:51:42;95579.75;;;17.67;100.00
33859;BME280;20156;47.486;12.074;2022-08-01T01:54:08;95582.06;;;17.64;100.00
33859;BME280;20156;47.486;12.074;2022-08-01T01:56:35;95581.97;;;17.59;100.00
33859;BME280;20156;47.486;12.074;2022-08-01T01:59:15;95573.72;;;17.84;100.00
33859;BME280;20156;47.486;12.074;2022-08-01T02:01:42;95576.75;;;17.76;100.00
33859;BME280;20156;47.486;12.074;2022-08-01T02:04:09;95573.44;;;17.52;100.00
33859;BME280;20156;47.486;12.074;2022-08-01T02:06:35;95566.09;;;17.54;100.00
33859;BME280;20156;47.486;12.074;2022-08-01T02:09:02;95576.53;;;17.49;100.00
33859;BME280;20156;47.486;12.074;2022-08-01T02:11:28;95568.66;;;17.49;100.00
33859;BME280;20156;47.486;12.074;2022-08-01T02:13:59;95572.78;;;17.61;100.00
33859;BME280;20156;47.486;12.074;2022-08-01T02:16:28;95576.19;;;17.73;100.00
33859;BME280;20156;47.486;12.074;2022-08-01T02:18:55;95582.31;;;17.79;100.00
33859;BME280;20156;47.486;12.074;2022-08-01T02:21:30;95571.53;;;18.31;100.00
33859;BME280;20156;47.486;12.074;2022-08-01T02:24:01;95584.88;;;18.08;100.00
33859;BME280;20156;47.486;12.074;2022-08-01T02:26:28;95583.22;;;17.68;100.00
33859;BME280;20156;47.486;12.074;2022-08-01T02:28:59;95586.97;;;17.72;100.00
33859;BME280;20156;47.486;12.074;2022-08-01T02:31:32;95591.00;;;17.80;100.00
33859;BME280;20156;47.486;12.074;2022-08-01T02:34:02;95592.16;;;17.84;100.00
33859;BME280;20156;47.486;12.074;2022-08-01T02:36:30;95591.47;;;18.27;100.00
33859;BME280;20156;47.486;12.074;2022-08-01T02:38:59;95592.06;;;18.12;100.00
33859;BME280;20156;47.486;12.074;2022-08-01T02:41:26;95595.66;;;18.06;100.00
33859;BME280;20156;47.486;12.074;2022-08-01T02:43:57;95593.59;;;17.91;100.00
33859;BME280;20156;47.486;12.074;2022-08-01T02:46:27;95590.34;;;17.56;100.00
33859;BME280;20156;47.486;12.074;2022-08-01T02:48:56;95597.16;;;17.40;100.00
33859;BME280;20156;47.486;12.074;2022-08-01T02:51:23;95600.22;;;17.49;100.00
33859;BME280;20156;47.486;12.074;2022-08-01T02:53:51;95584.34;;;17.60;100.00
33859;BME280;20156;47.486;12.074;2022-08-01T02:56:19;95588.22;;;17.69;100.00
33859;BME280;20156;47.486;12.074;2022-08-01T02:58:46;95596.94;;;17.58;100.00
33859;BME280;20156;47.486;12.074;2022-08-01T03:01:14;95589.53;;;17.55;100.00
33859;BME280;20156;47.486;12.074;2022-08-01T03:03:41;95590.47;;;17.94;100.00
33859;BME280;20156;47.486;12.074;2022-08-01T03:06:07;95599.78;;;17.68;100.00
33859;BME280;20156;47.486;12.074;2022-08-01T03:08:34;95596.03;;;17.36;100.00
33859;BME280;20156;47.486;12.074;2022-08-01T03:11:02;95595.88;;;17.71;100.00
33859;BME280;20156;47.486;12.074;2022-08-01T03:13:29;95589.50;;;17.38;100.00
33859;BME280;20156;47.486;12.074;2022-08-01T03:15:56;95605.03;;;17.11;100.00
33859;BME280;20156;47.486;12.074;2022-08-01T03:18:24;95595.25;;;17.35;100.00
33859;BME280;20156;47.486;12.074;2022-08-01T03:20:50;95600.22;;;17.20;100.00
33859;BME280;20156;47.486;12.074;2022-08-01T03:23:18;95606.75;;;17.18;100.00
33859;BME280;20156;47.486;12.074;2022-08-01T03:25:46;95604.41;;;16.93;100.00
33859;BME280;20156;47.486;12.074;2022-08-01T03:28:15;95599.59;;;17.01;100.00
33859;BME280;20156;47.486;12.074;2022-08-01T03:30:42;95602.69;;;17.27;100.00
33859;BME280;20156;47.486;12.074;2022-08-01T03:33:08;95605.28;;;17.10;100.00
33859;BME280;20156;47.486;12.074;2022-08-01T03:35:37;95601.72;;;17.16;100.00
33859;BME280;20156;47.486;12.074;2022-08-01T03:38:05;95604.41;;;17.33;100.00
33859;BME280;20156;47.486;12.074;2022-08-01T03:40:38;95614.97;;;17.21;100.00
33859;BME280;20156;47.486;12.074;2022-08-01T03:43:15;95622.22;;;17.02;100.00
33859;BME280;20156;47.486;12.074;2022-08-01T03:45:49;95622.56;;;17.06;100.00
33859;BME280;20156;47.486;12.074;2022-08-01T03:48:22;95617.72;;;17.43;100.00
33859;BME280;20156;47.486;12.074;2022-08-01T03:50:52;95615.00;;;17.38;100.00
33859;BME280;20156;47.486;12.074;2022-08-01T03:53:25;95618.91;;;16.95;100.00
33859;BME280;20156;47.486;12.074;2022-08-01T03:55:54;95622.72;;;16.99;100.00
33859;BME280;20156;47.486;12.074;2022-08-01T03:58:21;95629.88;;;17.04;100.00
33859;BME280;20156;47.486;12.074;2022-08-01T04:00:47;95622.78;;;17.04;100.00
33859;BME280;20156;47.486;12.074;2022-08-01T04:03:14;95616.88;;;17.26;100.00
33859;BME280;20156;47.486;12.074;2022-08-01T04:05:43;95615.44;;;17.18;100.00
33859;BME280;20156;47.486;12.074;2022-08-01T04:08:08;95613.19;;;17.38;100.00
33859;BME280;20156;47.486;12.074;2022-08-01T04:10:34;95621.53;;;17.07;100.00
33859;BME280;20156;47.486;12.074;2022-08-01T04:13:00;95623.66;;;17.22;100.00
33859;BME280;20156;47.486;12.074;2022-08-01T04:15:25;95619.84;;;17.58;100.00
33859;BME280;20156;47.486;12.074;2022-08-01T04:17:51;95631.78;;;17.20;100.00
33859;BME280;20156;47.486;12.074;2022-08-01T04:20:16;95630.78;;;17.09;100.00
33859;BME280;20156;47.486;12.074;2022-08-01T04:22:42;95642.78;;;17.17;100.00
33859;BME280;20156;47.486;12.074;2022-08-01T04:25:22;95630.34;;;17.69;100.00
33859;BME280;20156;47.486;12.074;2022-08-01T04:27:50;95637.69;;;17.27;100.00
33859;BME280;20156;47.486;12.074;2022-08-01T04:30:22;95646.88;;;17.13;100.00
33859;BME280;20156;47.486;12.074;2022-08-01T04:32:51;95635.28;;;17.26;100.00
33859;BME280;20156;47.486;12.074;2022-08-01T04:35:18;95633.78;;;17.30;100.00
33859;BME280;20156;47.486;12.074;2022-08-01T04:37:45;95629.78;;;16.99;100.00
33859;BME280;20156;47.486;12.074;2022-08-01T04:40:13;95635.94;;;17.04;100.00
33859;BME280;20156;47.486;12.074;2022-08-01T04:42:39;95638.81;;;16.91;100.00
33859;BME280;20156;47.486;12.074;2022-08-01T04:45:06;95643.59;;;16.94;100.00
33859;BME280;20156;47.486;12.074;2022-08-01T04:47:34;95647.50;;;17.03;100.00
33859;BME280;20156;47.486;12.074;2022-08-01T04:50:04;95647.69;;;17.42;100.00
33859;BME280;20156;47.486;12.074;2022-08-01T04:52:36;95650.63;;;18.02;100.00
33859;BME280;20156;47.486;12.074;2022-08-01T04:55:02;95644.41;;;18.25;100.00
33859;BME280;20156;47.486;12.074;2022-08-01T04:57:28;95647.22;;;18.36;100.00
33859;BME280;20156;47.486;12.074;2022-08-01T04:59:53;95641.69;;;18.54;100.00
33859;BME280;20156;47.486;12.074;2022-08-01T05:02:22;95650.78;;;17.96;100.00
33859;BME280;20156;47.486;12.074;2022-08-01T05:04:48;95656.03;;;17.51;100.00
33859;BME280;20156;47.486;12.074;2022-08-01T05:07:14;95647.31;;;17.79;100.00
33859;BME280;20156;47.486;12.074;2022-08-01T05:09:41;95640.59;;;17.99;100.00
33859;BME280;20156;47.486;12.074;2022-08-01T05:12:08;95649.25;;;17.55;100.00
33859;BME280;20156;47.486;12.074;2022-08-01T05:14:34;95647.34;;;17.50;100.00
33859;BME280;20156;47.486;12.074;2022-08-01T05:17:02;95649.44;;;17.65;100.00
33859;BME280;20156;47.486;12.074;2022-08-01T05:19:32;95651.56;;;17.51;100.00
33859;BME280;20156;47.486;12.074;2022-08-01T05:22:00;95653.38;;;17.79;100.00
33859;BME280;20156;47.486;12.074;2022-08-01T05:24:28;95645.19;;;18.43;100.00
33859;BME280;20156;47.486;12.074;2022-08-01T05:26:55;95638.19;;;18.65;100.00
33859;BME280;20156;47.486;12.074;2022-08-01T05:29:20;95638.00;;;18.93;100.00
33859;BME280;20156;47.486;12.074;2022-08-01T05:31:46;95640.94;;;18.97;100.00
33859;BME280;20156;47.486;12.074;2022-08-01T05:34:11;95636.00;;;19.01;100.00
33859;BME280;20156;47.486;12.074;2022-08-01T05:36:37;95641.69;;;19.14;100.00
33859;BME280;20156;47.486;12.074;2022-08-01T05:39:03;95651.44;;;19.14;100.00
33859;BME280;20156;47.486;12.074;2022-08-01T05:41:29;95651.16;;;19.32;100.00
33859;BME280;20156;47.486;12.074;2022-08-01T05:43:55;95640.63;;;19.59;100.00
33859;BME280;20156;47.486;12.074;2022-08-01T05:46:20;95641.53;;;19.70;100.00
33859;BME280;20156;47.486;12.074;2022-08-01T05:48:45;95648.59;;;19.64;100.00
33859;BME280;20156;47.486;12.074;2022-08-01T05:51:11;95652.59;;;19.45;100.00
33859;BME280;20156;47.486;12.074;2022-08-01T05:53:36;95650.34;;;19.80;100.00
33859;BME280;20156;47.486;12.074;2022-08-01T05:56:02;95644.91;;;19.92;100.00
33859;BME280;20156;47.486;12.074;2022-08-01T05:58:27;95651.28;;;19.96;100.00
33859;BME280;20156;47.486;12.074;2022-08-01T06:00:52;95647.22;;;20.16;100.00
33859;BME280;20156;47.486;12.074;2022-08-01T06:03:18;95635.91;;;20.20;100.00
33859;BME280;20156;47.486;12.074;2022-08-01T06:05:44;95644.66;;;20.26;100.00
33859;BME280;20156;47.486;12.074;2022-08-01T06:08:09;95648.59;;;20.23;100.00
33859;BME280;20156;47.486;12.074;2022-08-01T06:10:35;95652.44;;;20.10;100.00
33859;BME280;20156;47.486;12.074;2022-08-01T06:13:00;95647.03;;;20.27;100.00
33859;BME280;20156;47.486;12.074;2022-08-01T06:15:28;95643.47;;;20.43;100.00
33859;BME280;20156;47.486;12.074;2022-08-01T06:17:54;95642.16;;;20.46;100.00
33859;BME280;20156;47.486;12.074;2022-08-01T06:20:20;95646.97;;;20.49;100.00
33859;BME280;20156;47.486;12.074;2022-08-01T06:22:45;95653.19;;;20.33;100.00
33859;BME280;20156;47.486;12.074;2022-08-01T06:25:11;95652.94;;;20.77;100.00
33859;BME280;20156;47.486;12.074;2022-08-01T06:27:36;95646.66;;;20.83;100.00
33859;BME280;20156;47.486;12.074;2022-08-01T06:30:03;95651.25;;;21.08;100.00
33859;BME280;20156;47.486;12.074;2022-08-01T06:32:31;95645.22;;;21.22;100.00
33859;BME280;20156;47.486;12.074;2022-08-01T06:34:57;95649.03;;;21.37;100.00
33859;BME280;20156;47.486;12.074;2022-08-01T06:37:23;95644.00;;;21.45;100.00
33859;BME280;20156;47.486;12.074;2022-08-01T06:43:10;95647.69;;;21.39;100.00
33859;BME280;20156;47.486;12.074;2022-08-01T06:45:37;95646.41;;;21.52;100.00
33859;BME280;20156;47.486;12.074;2022-08-01T06:50:29;95633.75;;;21.95;100.00
33859;BME280;20156;47.486;12.074;2022-08-01T06:52:54;95630.63;;;22.08;100.00
33859;BME280;20156;47.486;12.074;2022-08-01T06:55:20;95632.16;;;21.99;100.00
33859;BME280;20156;47.486;12.074;2022-08-01T06:57:47;95627.13;;;21.97;100.00
33859;BME280;20156;47.486;12.074;2022-08-01T07:00:13;95625.59;;;22.21;100.00
33859;BME280;20156;47.486;12.074;2022-08-01T07:02:39;95620.81;;;22.18;100.00
33859;BME280;20156;47.486;12.074;2022-08-01T07:05:05;95615.22;;;22.30;100.00
33859;BME280;20156;47.486;12.074;2022-08-01T07:07:30;95624.50;;;22.33;100.00
33859;BME280;20156;47.486;12.074;2022-08-01T07:09:56;95622.63;;;22.33;100.00
33859;BME280;20156;47.486;12.074;2022-08-01T07:12:21;95627.72;;;22.35;100.00
33859;BME280;20156;47.486;12.074;2022-08-01T07:14:47;95624.47;;;22.63;100.00
33859;BME280;20156;47.486;12.074;2022-08-01T07:17:12;95616.50;;;22.63;100.00
33859;BME280;20156;47.486;12.074;2022-08-01T07:19:37;95613.28;;;22.92;100.00
33859;BME280;20156;47.486;12.074;2022-08-01T07:22:03;95612.75;;;22.74;100.00
33859;BME280;20156;47.486;12.074;2022-08-01T07:24:28;95614.06;;;22.92;100.00
33859;BME280;20156;47.486;12.074;2022-08-01T07:26:55;95610.59;;;23.02;100.00
33859;BME280;20156;47.486;12.074;2022-08-01T07:29:23;95611.84;;;23.15;100.00
33859;BME280;20156;47.486;12.074;2022-08-01T07:31:53;95609.97;;;23.20;100.00
33859;BME280;20156;47.486;12.074;2022-08-01T07:34:20;95612.06;;;23.28;100.00
33859;BME280;20156;47.486;12.074;2022-08-01T07:36:45;95604.50;;;23.01;100.00
33859;BME280;20156;47.486;12.074;2022-08-01T07:39:10;95599.44;;;23.59;100.00
33859;BME280;20156;47.486;12.074;2022-08-01T07:41:36;95602.63;;;23.56;100.00
33859;BME280;20156;47.486;12.074;2022-08-01T07:44:01;95604.59;;;23.35;100.00
33859;BME280;20156;47.486;12.074;2022-08-01T07:46:27;95593.63;;;23.91;100.00
33859;BME280;20156;47.486;12.074;2022-08-01T07:48:52;95597.88;;;23.92;100.00
33859;BME280;20156;47.486;12.074;2022-08-01T07:51:18;95596.78;;;24.27;100.00
33859;BME280;20156;47.486;12.074;2022-08-01T07:53:43;95599.19;;;24.29;100.00
33859;BME280;20156;47.486;12.074;2022-08-01T07:56:08;95592.34;;;24.18;100.00
33859;BME280;20156;47.486;12.074;2022-08-01T07:58:34;95588.31;;;24.54;100.00
33859;BME280;20156;47.486;12.074;2022-08-01T08:01:00;95593.50;;;24.65;100.00
33859;BME280;20156;47.486;12.074;2022-08-01T08:03:25;95591.94;;;24.35;100.00
33859;BME280;20156;47.486;12.074;2022-08-01T08:05:51;95587.25;;;24.55;100.00
33859;BME280;20156;47.486;12.074;2022-08-01T08:08:17;95591.19;;;24.58;100.00
33859;BME280;20156;47.486;12.074;2022-08-01T08:10:43;95590.81;;;24.70;100.00
33859;BME280;20156;47.486;12.074;2022-08-01T08:13:09;95584.94;;;24.73;100.00
33859;BME280;20156;47.486;12.074;2022-08-01T08:15:34;95583.09;;;24.92;100.00
33859;BME280;20156;47.486;12.074;2022-08-01T08:18:00;95588.13;;;24.94;100.00
33859;BME280;20156;47.486;12.074;2022-08-01T08:20:25;95582.19;;;25.26;100.00
33859;BME280;20156;47.486;12.074;2022-08-01T08:22:52;95589.41;;;25.01;100.00
33859;BME280;20156;47.486;12.074;2022-08-01T08:25:18;95579.72;;;25.29;100.00
33859;BME280;20156;47.486;12.074;2022-08-01T08:27:49;95581.03;;;25.32;100.00
33859;BME280;20156;47.486;12.074;2022-08-01T08:30:15;95579.16;;;25.51;100.00
33859;BME280;20156;47.486;12.074;2022-08-01T08:32:41;95577.53;;;25.74;100.00
33859;BME280;20156;47.486;12.074;2022-08-01T08:35:07;95579.66;;;25.91;100.00
33859;BME280;20156;47.486;12.074;2022-08-01T08:37:33;95583.41;;;25.52;100.00
33859;BME280;20156;47.486;12.074;2022-08-01T08:39:59;95580.19;;;25.55;100.00
33859;BME280;20156;47.486;12.074;2022-08-01T08:42:25;95581.69;;;25.80;100.00
33859;BME280;20156;47.486;12.074;2022-08-01T08:44:50;95581.66;;;25.99;100.00
33859;BME280;20156;47.486;12.074;2022-08-01T08:47:17;95583.38;;;25.76;100.00
33859;BME280;20156;47.486;12.074;2022-08-01T08:49:43;95578.94;;;26.18;100.00
33859;BME280;20156;47.486;12.074;2022-08-01T08:52:10;95568.69;;;26.71;100.00
33859;BME280;20156;47.486;12.074;2022-08-01T08:54:37;95578.84;;;26.42;100.00
33859;BME280;20156;47.486;12.074;2022-08-01T08:57:04;95574.59;;;26.41;100.00
33859;BME280;20156;47.486;12.074;2022-08-01T08:59:30;95565.09;;;26.48;100.00
33859;BME280;20156;47.486;12.074;2022-08-01T09:01:57;95561.94;;;26.87;100.00
33859;BME280;20156;47.486;12.074;2022-08-01T09:04:23;95558.78;;;26.99;100.00
33859;BME280;20156;47.486;12.074;2022-08-01T09:06:49;95549.97;;;26.98;100.00
33859;BME280;20156;47.486;12.074;2022-08-01T09:09:15;95543.34;;;26.68;100.00
33859;BME280;20156;47.486;12.074;2022-08-01T09:11:40;95542.03;;;27.21;100.00
33859;BME280;20156;47.486;12.074;2022-08-01T09:14:07;95550.31;;;27.47;100.00
33859;BME280;20156;47.486;12.074;2022-08-01T09:16:34;95540.56;;;27.65;100.00
33859;BME280;20156;47.486;12.074;2022-08-01T09:19:14;95519.56;;;27.72;100.00
33859;BME280;20156;47.486;12.074;2022-08-01T09:21:41;95520.25;;;27.86;100.00
33859;BME280;20156;47.486;12.074;2022-08-01T09:24:20;95504.56;;;27.93;100.00
33859;BME280;20156;47.486;12.074;2022-08-01T09:26:45;95502.72;;;28.02;100.00
33859;BME280;20156;47.486;12.074;2022-08-01T09:29:18;95502.31;;;28.09;100.00
33859;BME280;20156;47.486;12.074;2022-08-01T09:31:44;95496.50;;;28.15;100.00
33859;BME280;20156;47.486;12.074;2022-08-01T09:34:11;95491.72;;;28.26;100.00
33859;BME280;20156;47.486;12.074;2022-08-01T09:39:18;95490.22;;;27.67;100.00
33859;BME280;20156;47.486;12.074;2022-08-01T09:41:44;95494.28;;;27.86;100.00
33859;BME280;20156;47.486;12.074;2022-08-01T09:44:09;95492.31;;;28.01;100.00
33859;BME280;20156;47.486;12.074;2022-08-01T09:46:35;95497.34;;;27.94;100.00
33859;BME280;20156;47.486;12.074;2022-08-01T09:49:03;95499.78;;;27.81;100.00
33859;BME280;20156;47.486;12.074;2022-08-01T09:51:35;95497.34;;;27.35;100.00
33859;BME280;20156;47.486;12.074;2022-08-01T09:54:05;95488.09;;;27.55;100.00
33859;BME280;20156;47.486;12.074;2022-08-01T09:56:38;95486.72;;;28.11;100.00
33859;BME280;20156;47.486;12.074;2022-08-01T09:59:05;95484.47;;;28.35;100.00
33859;BME280;20156;47.486;12.074;2022-08-01T10:06:33;95483.78;;;27.45;100.00
33859;BME280;20156;47.486;12.074;2022-08-01T10:09:02;95481.59;;;27.70;100.00
33859;BME280;20156;47.486;12.074;2022-08-01T10:11:28;95482.50;;;27.07;100.00
33859;BME280;20156;47.486;12.074;2022-08-01T10:13:56;95468.88;;;27.53;100.00
33859;BME280;20156;47.486;12.074;2022-08-01T10:16:24;95465.41;;;28.28;100.00
33859;BME280;20156;47.486;12.074;2022-08-01T10:18:50;95461.28;;;28.22;100.00
33859;BME280;20156;47.486;12.074;2022-08-01T10:21:16;95457.97;;;28.65;100.00
33859;BME280;20156;47.486;12.074;2022-08-01T10:23:42;95452.69;;;29.17;100.00
33859;BME280;20156;47.486;12.074;2022-08-01T10:26:10;95456.28;;;27.98;100.00
33859;BME280;20156;47.486;12.074;2022-08-01T10:28:38;95458.03;;;28.34;100.00
33859;BME280;20156;47.486;12.074;2022-08-01T10:31:04;95449.22;;;29.33;100.00
33859;BME280;20156;47.486;12.074;2022-08-01T10:33:30;95450.97;;;29.29;100.00
33859;BME280;20156;47.486;12.074;2022-08-01T10:35:56;95442.00;;;28.42;100.00
33859;BME280;20156;47.486;12.074;2022-08-01T10:38:22;95432.41;;;28.50;100.00
33859;BME280;20156;47.486;12.074;2022-08-01T10:40:49;95445.31;;;28.39;100.00
33859;BME280;20156;47.486;12.074;2022-08-01T10:43:16;95442.59;;;28.00;100.00
33859;BME280;20156;47.486;12.074;2022-08-01T10:45:44;95442.63;;;28.08;100.00
33859;BME280;20156;47.486;12.074;2022-08-01T10:48:32;95444.28;;;27.65;100.00
33859;BME280;20156;47.486;12.074;2022-08-01T10:51:03;95436.06;;;27.83;100.00
33859;BME280;20156;47.486;12.074;2022-08-01T10:53:29;95425.06;;;28.25;100.00
33859;BME280;20156;47.486;12.074;2022-08-01T10:56:03;95425.88;;;28.99;100.00
33859;BME280;20156;47.486;12.074;2022-08-01T10:58:33;95416.44;;;29.28;100.00
33859;BME280;20156;47.486;12.074;2022-08-01T11:01:19;95418.16;;;29.15;100.00
33859;BME280;20156;47.486;12.074;2022-08-01T11:06:28;95414.25;;;28.38;100.00
33859;BME280;20156;47.486;12.074;2022-08-01T11:12:08;95401.25;;;28.63;100.00
33859;BME280;20156;47.486;12.074;2022-08-01T11:17:39;95394.94;;;28.19;100.00
33859;BME280;20156;47.486;12.074;2022-08-01T11:30:47;95378.50;;;28.34;100.00
33859;BME280;20156;47.486;12.074;2022-08-01T11:33:15;95369.53;;;28.48;100.00
33859;BME280;20156;47.486;12.074;2022-08-01T11:39:10;95355.75;;;29.06;100.00
33859;BME280;20156;47.486;12.074;2022-08-01T11:41:38;95366.41;;;28.54;100.00
33859;BME280;20156;47.486;12.074;2022-08-01T11:44:17;95362.97;;;28.88;100.00
33859;BME280;20156;47.486;12.074;2022-08-01T11:47:00;95356.97;;;28.83;100.00
33859;BME280;20156;47.486;12.074;2022-08-01T11:54:45;95357.41;;;29.45;100.00
33859;BME280;20156;47.486;12.074;2022-08-01T11:59:48;95357.56;;;29.49;100.00
33859;BME280;20156;47.486;12.074;2022-08-01T12:02:28;95352.25;;;28.88;100.00
33859;BME280;20156;47.486;12.074;2022-08-01T12:07:23;95339.03;;;29.73;100.00
33859;BME280;20156;47.486;12.074;2022-08-01T12:10:06;95352.00;;;30.01;98.63
33859;BME280;20156;47.486;12.074;2022-08-01T12:12:33;95347.69;;;30.88;100.00
33859;BME280;20156;47.486;12.074;2022-08-01T12:15:02;95348.69;;;30.04;100.00
33859;BME280;20156;47.486;12.074;2022-08-01T12:17:32;95351.94;;;30.18;100.00
33859;BME280;20156;47.486;12.074;2022-08-01T12:19:58;95357.00;;;29.81;100.00
33859;BME280;20156;47.486;12.074;2022-08-01T12:22:24;95348.91;;;29.90;100.00
33859;BME280;20156;47.486;12.074;2022-08-01T12:24:51;95343.34;;;30.33;100.00
33859;BME280;20156;47.486;12.074;2022-08-01T12:27:28;95346.72;;;31.47;100.00
33859;BME280;20156;47.486;12.074;2022-08-01T12:29:55;95358.84;;;30.57;98.93
33859;BME280;20156;47.486;12.074;2022-08-01T12:32:30;95358.53;;;30.29;93.91
33859;BME280;20156;47.486;12.074;2022-08-01T12:35:07;95358.16;;;30.01;99.07
33859;BME280;20156;47.486;12.074;2022-08-01T12:37:41;95353.38;;;29.77;97.94
33859;BME280;20156;47.486;12.074;2022-08-01T12:42:41;95359.34;;;29.91;100.00
33859;BME280;20156;47.486;12.074;2022-08-01T12:45:08;95359.03;;;29.84;100.00
33859;BME280;20156;47.486;12.074;2022-08-01T12:47:36;95357.25;;;29.50;97.84
33859;BME280;20156;47.486;12.074;2022-08-01T12:50:05;95359.94;;;29.42;100.00
33859;BME280;20156;47.486;12.074;2022-08-01T12:52:31;95348.75;;;29.48;100.00
33859;BME280;20156;47.486;12.074;2022-08-01T12:57:38;95356.53;;;29.79;98.78
33859;BME280;20156;47.486;12.074;2022-08-01T13:00:13;95353.59;;;29.63;96.30
33859;BME280;20156;47.486;12.074;2022-08-01T13:02:39;95351.84;;;29.68;95.92
33859;BME280;20156;47.486;12.074;2022-08-01T13:05:06;95348.38;;;30.35;99.95
33859;BME280;20156;47.486;12.074;2022-08-01T13:07:36;95358.00;;;30.65;94.58
33859;BME280;20156;47.486;12.074;2022-08-01T13:10:03;95350.06;;;30.69;92.45
33859;BME280;20156;47.486;12.074;2022-08-01T13:12:29;95356.25;;;30.40;94.71
33859;BME280;20156;47.486;12.074;2022-08-01T13:14:54;95342.13;;;29.46;98.49
33859;BME280;20156;47.486;12.074;2022-08-01T13:17:30;95347.19;;;29.04;98.86
33859;BME280;20156;47.486;12.074;2022-08-01T13:19:56;95351.75;;;29.29;100.00
33859;BME280;20156;47.486;12.074;2022-08-01T13:22:34;95351.31;;;29.10;100.00
33859;BME280;20156;47.486;12.074;2022-08-01T13:25:13;95346.84;;;29.31;100.00
33859;BME280;20156;47.486;12.074;2022-08-01T13:27:38;95344.50;;;30.23;93.32
33859;BME280;20156;47.486;12.074;2022-08-01T13:30:15;95343.81;;;30.56;90.95
33859;BME280;20156;47.486;12.074;2022-08-01T13:32:41;95342.88;;;30.31;92.64
33859;BME280;20156;47.486;12.074;2022-08-01T13:35:12;95339.66;;;29.70;95.23
33859;BME280;20156;47.486;12.074;2022-08-01T13:37:39;95340.19;;;30.52;92.85
33859;BME280;20156;47.486;12.074;2022-08-01T13:40:07;95348.06;;;30.36;92.48
33859;BME280;20156;47.486;12.074;2022-08-01T13:42:32;95344.31;;;29.52;93.58
33859;BME280;20156;47.486;12.074;2022-08-01T13:44:58;95337.56;;;29.20;92.54